createdAt,value
2022-09-15T00:00:45.838Z,25.13
2022-09-15T00:03:12.743Z,28.43
2022-09-15T00:05:39.477Z,26.67
2022-09-15T00:08:06.136Z,28.33
2022-09-15T00:10:32.776Z,32.73
2022-09-15T00:12:59.418Z,27.03
2022-09-15T00:15:26.105Z,28.40
2022-09-15T00:17:55.473Z,42.03
2022-09-15T00:20:22.592Z,31.40
2022-09-15T00:22:53.657Z,33.37
2022-09-15T00:25:20.267Z,31.47
2022-09-15T00:27:47.199Z,28.60
2022-09-15T00:30:13.963Z,30.20
2022-09-15T00:32:40.597Z,32.13
2022-09-15T00:35:07.576Z,35.00
2022-09-15T00:37:34.236Z,38.90
2022-09-15T00:40:03.493Z,40.07
2022-09-15T00:42:30.183Z,40.60
2022-09-15T00:44:59.295Z,42.37
2022-09-15T00:47:35.996Z,38.40
2022-09-15T00:50:08.122Z,43.27
2022-09-15T00:52:36.541Z,35.73
2022-09-15T00:55:05.913Z,48.10
2022-09-15T00:58:12.021Z,49.17
2022-09-15T01:00:55.530Z,45.53
2022-09-15T01:03:23.711Z,49.33
2022-09-15T01:05:54.937Z,56.07
2022-09-15T01:08:43.414Z,47.73
2022-09-15T01:11:10.187Z,44.20
2022-09-15T01:13:37.128Z,48.73
2022-09-15T01:16:28.172Z,55.07
2022-09-15T01:19:13.520Z,62.80
2022-09-15T01:21:42.048Z,54.47
2022-09-15T01:24:19.905Z,56.63
2022-09-15T01:26:46.564Z,42.77
2022-09-15T01:29:28.205Z,46.83
2022-09-15T01:32:17.550Z,43.43
2022-09-15T01:34:54.512Z,48.33
2022-09-15T01:37:25.512Z,52.93
2022-09-15T01:39:53.131Z,40.77
2022-09-15T01:42:20.945Z,42.20
2022-09-15T01:44:55.294Z,38.07
2022-09-15T01:47:22.767Z,35.80
2022-09-15T01:49:54.850Z,36.17
2022-09-15T01:52:23.241Z,33.10
2022-09-15T01:54:56.672Z,34.57
2022-09-15T01:57:23.565Z,29.93
2022-09-15T01:59:51.401Z,31.23
2022-09-15T02:02:20.879Z,30.50
2022-09-15T02:04:51.400Z,34.43
2022-09-15T02:07:28.452Z,27.63
2022-09-15T02:10:13.100Z,28.77
2022-09-15T02:12:43.376Z,29.17
2022-09-15T02:15:14.969Z,26.20
2022-09-15T02:17:46.619Z,35.17
2022-09-15T02:20:38.879Z,22.77
2022-09-15T02:23:13.260Z,27.10
2022-09-15T02:25:46.609Z,31.97
2022-09-15T02:28:14.244Z,25.13
2022-09-15T02:30:43.192Z,22.37
2022-09-15T02:33:14.101Z,26.60
2022-09-15T02:35:41.313Z,29.43
2022-09-15T02:38:09.160Z,23.87
2022-09-15T02:40:36.939Z,26.90
2022-09-15T02:43:05.363Z,28.00
2022-09-15T02:45:32.473Z,19.20
2022-09-15T02:47:59.178Z,23.50
2022-09-15T02:50:26.718Z,26.93
2022-09-15T02:52:54.743Z,18.80
2022-09-15T02:55:22.108Z,25.57
2022-09-15T02:57:50.786Z,18.73
2022-09-15T03:00:18.660Z,19.60
2022-09-15T03:02:50.275Z,22.70
2022-09-15T03:05:19.700Z,17.90
2022-09-15T03:07:46.695Z,18.10
2022-09-15T03:10:14.139Z,22.50
2022-09-15T03:12:44.996Z,19.17
2022-09-15T03:15:13.271Z,22.57
2022-09-15T03:17:41.703Z,15.33
2022-09-15T03:20:09.947Z,19.77
2022-09-15T03:22:38.030Z,10.50
2022-09-15T03:25:08.055Z,9.40
2022-09-15T03:27:34.904Z,7.33
2022-09-15T03:30:01.877Z,9.83
2022-09-15T03:32:28.611Z,8.20
2022-09-15T03:34:58.363Z,5.63
2022-09-15T03:37:26.045Z,4.83
2022-09-15T03:39:52.784Z,3.97
2022-09-15T03:42:19.876Z,3.97
2022-09-15T03:44:46.410Z,4.83
2022-09-15T03:47:13.132Z,5.17
2022-09-15T03:49:42.870Z,8.40
2022-09-15T03:52:11.724Z,4.10
2022-09-15T03:54:38.356Z,6.63
2022-09-15T03:57:05.087Z,6.40
2022-09-15T03:59:34.094Z,11.93
2022-09-15T04:02:00.731Z,7.60
2022-09-15T04:04:27.339Z,8.13
2022-09-15T04:06:53.894Z,7.47
2022-09-15T04:09:21.539Z,8.70
2022-09-15T04:11:48.251Z,6.33
2022-09-15T04:14:14.908Z,8.40
2022-09-15T04:16:41.640Z,10.43
2022-09-15T04:19:08.555Z,14.83
2022-09-15T04:21:35.123Z,13.70
2022-09-15T04:24:04.658Z,11.90
2022-09-15T04:26:36.419Z,12.47
2022-09-15T04:29:05.103Z,16.80
2022-09-15T04:31:32.712Z,12.67
2022-09-15T04:33:59.509Z,13.33
2022-09-15T04:36:29.593Z,14.33
2022-09-15T04:38:56.817Z,15.73
2022-09-15T04:41:24.488Z,14.37
2022-09-15T04:43:51.515Z,14.23
2022-09-15T04:46:18.781Z,11.00
2022-09-15T04:48:46.214Z,16.47
2022-09-15T04:51:21.395Z,12.77
2022-09-15T04:53:48.860Z,14.10
2022-09-15T04:56:20.853Z,16.17
2022-09-15T04:58:52.877Z,15.13
2022-09-15T05:01:22.858Z,14.00
2022-09-15T05:03:49.596Z,15.43
2022-09-15T05:06:18.419Z,13.47
2022-09-15T05:08:51.968Z,15.60
2022-09-15T05:11:19.399Z,17.33
2022-09-15T05:13:46.225Z,15.70
2022-09-15T05:16:20.228Z,16.23
2022-09-15T05:18:50.752Z,16.03
2022-09-15T05:21:19.679Z,17.67
2022-09-15T05:23:46.478Z,17.83
2022-09-15T05:26:17.173Z,14.33
2022-09-15T05:28:46.151Z,18.33
2022-09-15T05:31:27.815Z,18.47
2022-09-15T05:33:54.735Z,16.50
2022-09-15T05:36:24.986Z,18.77
2022-09-15T05:38:53.402Z,10.93
2022-09-15T05:41:28.715Z,12.90
2022-09-15T05:43:57.077Z,9.83
2022-09-15T05:46:26.119Z,10.23
2022-09-15T05:48:56.280Z,7.90
2022-09-15T05:51:23.212Z,10.97
2022-09-15T05:53:50.855Z,11.43
2022-09-15T05:56:26.056Z,7.97
2022-09-15T05:58:52.735Z,9.83
2022-09-15T06:01:24.619Z,14.03
2022-09-15T06:03:59.174Z,9.40
2022-09-15T06:06:26.245Z,9.37
2022-09-15T06:08:58.098Z,6.73
2022-09-15T06:11:34.728Z,4.90
2022-09-15T06:14:03.271Z,6.07
2022-09-15T06:16:32.650Z,5.90
2022-09-15T06:18:59.658Z,7.67
2022-09-15T06:21:28.523Z,12.23
2022-09-15T06:23:56.845Z,7.87
2022-09-15T06:26:33.419Z,4.70
2022-09-15T06:29:01.914Z,5.27
2022-09-15T06:31:31.502Z,8.10
2022-09-15T06:34:01.754Z,9.73
2022-09-15T06:36:29.788Z,9.70
2022-09-15T06:38:56.619Z,4.40
2022-09-15T06:41:23.512Z,4.97
2022-09-15T06:43:53.137Z,5.93
2022-09-15T06:46:22.239Z,7.80
2022-09-15T06:48:49.369Z,6.50
2022-09-15T06:51:20.833Z,6.73
2022-09-15T06:53:49.787Z,10.27
2022-09-15T06:56:21.313Z,10.03
2022-09-15T06:58:51.383Z,5.33
2022-09-15T07:01:32.094Z,5.83
2022-09-15T07:04:08.140Z,13.03
2022-09-15T07:06:34.921Z,6.67
2022-09-15T07:09:04.559Z,8.60
2022-09-15T07:11:38.777Z,9.83
2022-09-15T07:14:05.659Z,9.20
2022-09-15T07:16:32.300Z,11.37
2022-09-15T07:19:03.756Z,7.10
2022-09-15T07:21:30.418Z,14.23
2022-09-15T07:23:57.944Z,11.80
2022-09-15T07:26:27.173Z,12.17
2022-09-15T07:28:56.027Z,8.97
2022-09-15T07:31:25.215Z,11.30
2022-09-15T07:33:52.103Z,7.30
2022-09-15T07:36:19.175Z,10.07
2022-09-15T07:38:48.090Z,9.43
2022-09-15T07:41:26.445Z,12.30
2022-09-15T07:43:54.480Z,15.50
2022-09-15T07:46:26.854Z,9.67
2022-09-15T07:48:57.288Z,9.33
2022-09-15T07:51:24.737Z,6.90
2022-09-15T07:53:58.932Z,4.60
2022-09-15T07:56:25.502Z,4.87
2022-09-15T07:58:52.277Z,6.37
2022-09-15T08:01:20.136Z,6.00
2022-09-15T08:03:48.992Z,6.03
2022-09-15T08:06:18.438Z,6.80
2022-09-15T08:08:45.228Z,7.63
2022-09-15T08:11:18.918Z,4.23
2022-09-15T08:13:52.554Z,8.20
2022-09-15T08:16:22.746Z,2.47
2022-09-15T08:18:50.030Z,3.30
2022-09-15T08:21:23.060Z,6.90
2022-09-15T08:23:51.781Z,5.13
2022-09-15T08:26:18.716Z,5.07
2022-09-15T08:28:50.632Z,5.60
2022-09-15T08:31:17.514Z,8.03
2022-09-15T08:33:50.935Z,6.70
2022-09-15T08:36:28.064Z,7.70
2022-09-15T08:38:55.111Z,3.57
2022-09-15T08:41:26.271Z,4.13
2022-09-15T08:44:20.911Z,6.93
2022-09-15T08:47:00.660Z,6.37
2022-09-15T08:49:51.834Z,5.33
2022-09-15T08:52:21.818Z,5.20
2022-09-15T08:54:50.989Z,8.13
2022-09-15T08:57:20.379Z,3.83
2022-09-15T08:59:46.983Z,5.30
2022-09-15T09:02:31.007Z,2.77
2022-09-15T09:05:19.458Z,10.53
2022-09-15T09:08:00.372Z,5.13
2022-09-15T09:10:52.903Z,4.40
2022-09-15T09:13:35.254Z,8.80
2022-09-15T09:16:09.713Z,5.90
2022-09-15T09:18:48.691Z,10.23
2022-09-15T09:21:41.625Z,11.30
2022-09-15T09:24:17.097Z,3.97
2022-09-15T09:26:46.116Z,6.50
2022-09-15T09:29:16.916Z,4.03
2022-09-15T09:31:46.536Z,5.57
2022-09-15T09:34:41.002Z,6.47
2022-09-15T09:37:15.456Z,5.80
2022-09-15T09:39:42.833Z,8.53
2022-09-15T09:42:18.353Z,4.63
2022-09-15T09:44:46.233Z,8.23
2022-09-15T09:47:13.353Z,7.50
2022-09-15T09:49:48.636Z,4.33
2022-09-15T09:52:35.843Z,5.33
2022-09-15T09:55:18.617Z,3.90
2022-09-15T09:57:45.362Z,6.10
2022-09-15T10:00:35.301Z,7.60
2022-09-15T10:03:38.776Z,3.67
2022-09-15T10:06:14.169Z,9.20
2022-09-15T10:08:58.515Z,4.50
2022-09-15T10:11:43.300Z,7.63
2022-09-15T10:14:21.901Z,3.70
2022-09-15T10:17:11.034Z,2.87
2022-09-15T10:19:46.561Z,3.27
2022-09-15T10:22:23.760Z,5.40
2022-09-15T10:24:50.471Z,3.87
2022-09-15T10:27:30.008Z,5.10
2022-09-15T10:30:14.639Z,4.03
2022-09-15T10:32:42.590Z,3.97
2022-09-15T10:35:20.672Z,6.93
2022-09-15T10:38:17.311Z,4.33
2022-09-15T10:40:44.920Z,3.83
2022-09-15T10:43:28.945Z,9.27
2022-09-15T10:46:24.041Z,6.23
2022-09-15T10:49:16.950Z,5.47
2022-09-15T10:52:01.782Z,7.67
2022-09-15T10:54:53.377Z,5.70
2022-09-15T10:57:50.795Z,5.70
2022-09-15T11:00:24.086Z,4.50
2022-09-15T11:02:57.810Z,5.30
2022-09-15T11:05:36.462Z,3.27
2022-09-15T11:08:31.933Z,5.10
2022-09-15T11:11:16.919Z,5.90
2022-09-15T11:14:09.339Z,4.43
2022-09-15T11:16:40.663Z,4.70
2022-09-15T11:19:38.088Z,4.30
2022-09-15T11:22:11.549Z,3.63
2022-09-15T11:25:21.648Z,7.77
2022-09-15T11:28:05.705Z,4.40
2022-09-15T11:30:47.075Z,5.10
2022-09-15T11:33:21.338Z,2.43
2022-09-15T11:36:21.276Z,5.70
2022-09-15T11:38:54.064Z,1.67
2022-09-15T11:41:29.719Z,2.40
2022-09-15T11:44:38.066Z,7.00
2022-09-15T11:47:14.786Z,7.10
2022-09-15T11:50:10.595Z,3.13
2022-09-15T11:53:06.811Z,6.33
2022-09-15T11:55:36.011Z,3.93
2022-09-15T11:58:44.235Z,8.70
2022-09-15T12:01:10.773Z,2.90
2022-09-15T12:03:46.931Z,7.03
2022-09-15T12:06:36.145Z,7.33
2022-09-15T12:09:05.563Z,2.77
2022-09-15T12:11:35.424Z,2.57
2022-09-15T12:14:05.901Z,5.33
2022-09-15T12:16:33.858Z,3.83
2022-09-15T12:19:21.697Z,7.10
2022-09-15T12:22:18.105Z,5.80
2022-09-15T12:25:00.919Z,3.90
2022-09-15T12:27:28.181Z,5.63
2022-09-15T12:29:59.061Z,4.10
2022-09-15T12:32:35.323Z,7.50
2022-09-15T12:35:05.101Z,3.93
2022-09-15T12:37:43.033Z,2.90
2022-09-15T12:40:38.196Z,10.37
2022-09-15T12:43:11.445Z,4.30
2022-09-15T12:45:38.642Z,5.03
2022-09-15T12:48:15.475Z,2.63
2022-09-15T12:50:44.065Z,5.30
2022-09-15T12:53:20.367Z,4.60
2022-09-15T12:55:58.519Z,5.80
2022-09-15T13:02:51.271Z,6.40
2022-09-15T13:05:42.782Z,3.93
2022-09-15T13:08:29.094Z,4.60
2022-09-15T13:11:31.885Z,5.77
2022-09-15T13:14:07.792Z,5.20
2022-09-15T13:16:48.889Z,9.40
2022-09-15T13:19:37.108Z,3.70
2022-09-15T13:22:09.649Z,2.60
2022-09-15T13:24:59.082Z,5.60
2022-09-15T13:27:39.749Z,7.70
2022-09-15T13:30:53.956Z,4.53
2022-09-15T13:40:34.868Z,7.27
2022-09-15T13:43:23.248Z,3.73
2022-09-15T13:45:52.917Z,2.60
2022-09-15T13:48:27.941Z,2.60
2022-09-15T13:51:01.340Z,4.93
2022-09-15T13:53:33.868Z,5.83
2022-09-15T13:56:07.215Z,4.33
2022-09-15T14:01:21.557Z,4.60
2022-09-15T14:03:58.473Z,4.97
2022-09-15T14:06:30.249Z,2.87
2022-09-15T14:09:06.614Z,5.33
2022-09-15T14:11:35.529Z,6.60
2022-09-15T14:14:03.041Z,5.17
2022-09-15T14:16:36.810Z,3.87
2022-09-15T14:19:27.625Z,2.20
2022-09-15T14:21:58.308Z,2.73
2022-09-15T14:24:32.849Z,2.33
2022-09-15T14:27:01.545Z,5.93
2022-09-15T14:29:28.183Z,6.67
2022-09-15T14:32:00.135Z,5.03
2022-09-15T14:34:30.074Z,3.77
2022-09-15T14:37:31.675Z,5.80
2022-09-15T14:40:00.437Z,6.27
2022-09-15T14:42:32.901Z,6.50
2022-09-15T14:48:15.210Z,22.50
2022-09-15T14:50:46.586Z,7.80
2022-09-15T14:53:19.577Z,5.60
2022-09-15T14:55:53.257Z,5.40
2022-09-15T14:58:35.572Z,11.70
2022-09-15T15:01:16.886Z,3.80
2022-09-15T15:04:17.669Z,5.77
2022-09-15T15:06:59.703Z,7.97
2022-09-15T15:09:29.907Z,9.97
2022-09-15T15:12:15.276Z,12.17
2022-09-15T15:14:45.447Z,5.70
2022-09-15T15:17:29.518Z,10.00
2022-09-15T15:20:22.871Z,9.00
2022-09-15T15:23:19.855Z,5.97
2022-09-15T15:25:49.378Z,3.90
2022-09-15T15:28:29.300Z,3.93
2022-09-15T15:31:06.349Z,3.33
2022-09-15T15:33:33.553Z,5.63
2022-09-15T15:36:07.823Z,4.73
2022-09-15T15:38:52.968Z,3.70
2022-09-15T15:41:24.909Z,3.77
2022-09-15T15:43:59.821Z,3.53
2022-09-15T15:47:13.358Z,3.90
2022-09-15T15:50:02.193Z,2.70
2022-09-15T15:52:26.571Z,6.60
2022-09-15T15:54:53.432Z,3.33
2022-09-15T15:57:26.066Z,10.80
2022-09-15T15:59:55.916Z,4.40
2022-09-15T16:02:23.666Z,3.00
2022-09-15T16:04:50.423Z,4.63
2022-09-15T16:07:21.488Z,4.00
2022-09-15T16:09:48.224Z,3.17
2022-09-15T16:12:16.489Z,5.37
2022-09-15T16:14:43.169Z,3.57
2022-09-15T16:17:10.837Z,3.03
2022-09-15T16:19:45.267Z,1.90
2022-09-15T16:22:18.613Z,2.47
2022-09-15T16:24:47.708Z,1.77
2022-09-15T16:27:17.033Z,7.67
2022-09-15T16:29:52.898Z,2.90
2022-09-15T16:32:21.038Z,3.37
2022-09-15T16:34:51.139Z,8.87
2022-09-15T16:37:22.504Z,2.17
2022-09-15T16:39:52.641Z,6.03
2022-09-15T16:42:19.441Z,3.17
2022-09-15T16:44:46.611Z,9.93
2022-09-15T16:47:16.566Z,3.87
2022-09-15T16:49:43.227Z,3.90
2022-09-15T16:52:15.913Z,2.73
2022-09-15T16:54:42.634Z,2.57
2022-09-15T16:57:10.073Z,3.57
2022-09-15T16:59:44.035Z,4.10
2022-09-15T17:02:14.437Z,5.50
2022-09-15T17:04:48.750Z,3.53
2022-09-15T17:07:15.706Z,3.20
2022-09-15T17:09:49.549Z,2.20
2022-09-15T17:12:18.018Z,5.73
2022-09-15T17:14:44.623Z,4.10
2022-09-15T17:17:24.625Z,9.60
2022-09-15T17:19:51.426Z,3.97
2022-09-15T17:22:17.964Z,3.97
2022-09-15T17:24:44.541Z,3.70
2022-09-15T17:27:11.114Z,5.13
2022-09-15T17:29:43.368Z,7.83
2022-09-15T17:32:10.136Z,2.97
2022-09-15T17:34:39.517Z,5.10
2022-09-15T17:37:10.203Z,5.57
2022-09-15T17:39:43.409Z,4.90
2022-09-15T17:42:10.018Z,3.23
2022-09-15T17:44:41.105Z,3.50
2022-09-15T17:47:16.762Z,2.50
2022-09-15T17:49:43.441Z,3.30
2022-09-15T17:52:17.605Z,1.70
2022-09-15T17:54:44.382Z,6.10
2022-09-15T18:00:21.656Z,2.40
2022-09-15T18:02:52.461Z,4.83
2022-09-15T18:05:38.977Z,3.00
2022-09-15T18:08:09.313Z,2.23
2022-09-15T18:10:36.432Z,8.03
2022-09-15T18:13:14.504Z,5.10
2022-09-15T18:15:41.657Z,5.30
2022-09-15T18:18:19.932Z,4.03
2022-09-15T18:20:47.718Z,3.33
2022-09-15T18:23:24.935Z,9.17
2022-09-15T18:25:52.061Z,4.40
2022-09-15T18:28:18.862Z,2.67
2022-09-15T18:30:51.140Z,4.10
2022-09-15T18:33:23.252Z,3.20
2022-09-15T18:35:52.202Z,3.17
2022-09-15T18:38:28.192Z,5.43
2022-09-15T18:40:56.416Z,5.60
2022-09-15T18:43:25.563Z,2.53
2022-09-15T18:45:58.085Z,3.63
2022-09-15T18:48:24.816Z,4.23
2022-09-15T18:50:53.088Z,3.63
2022-09-15T18:53:19.883Z,2.90
2022-09-15T18:55:46.793Z,4.10
2022-09-15T18:58:13.622Z,2.50
2022-09-15T19:00:40.550Z,4.13
2022-09-15T19:03:09.541Z,2.80
2022-09-15T19:05:40.785Z,2.50
2022-09-15T19:08:09.117Z,5.03
2022-09-15T19:10:36.005Z,4.77
2022-09-15T19:13:02.641Z,3.60
2022-09-15T19:15:34.726Z,8.63
2022-09-15T19:18:02.204Z,3.13
2022-09-15T19:20:31.226Z,8.13
2022-09-15T19:23:00.501Z,3.27
2022-09-15T19:25:32.472Z,4.43
2022-09-15T19:28:03.686Z,3.23
2022-09-15T19:30:32.965Z,6.73
2022-09-15T19:33:02.798Z,2.63
2022-09-15T19:35:29.583Z,3.87
2022-09-15T19:37:56.205Z,3.57
2022-09-15T19:40:33.074Z,14.80
2022-09-15T19:42:59.752Z,20.10
2022-09-15T19:45:28.350Z,52.57
2022-09-15T19:47:54.946Z,5.13
2022-09-15T19:50:21.632Z,2.47
2022-09-15T19:52:50.705Z,3.20
2022-09-15T19:55:18.239Z,4.60
2022-09-15T19:57:44.906Z,9.10
2022-09-15T20:00:12.966Z,6.87
2022-09-15T20:02:39.845Z,4.80
2022-09-15T20:05:07.789Z,5.50
2022-09-15T20:07:34.425Z,5.97
2022-09-15T20:10:01.205Z,3.80
2022-09-15T20:12:27.898Z,4.17
2022-09-15T20:14:54.619Z,6.30
2022-09-15T20:17:30.369Z,3.13
2022-09-15T20:19:57.106Z,6.67
2022-09-15T20:22:23.946Z,7.77
2022-09-15T20:24:57.283Z,3.67
2022-09-15T20:27:24.110Z,7.80
2022-09-15T20:29:50.859Z,4.73
2022-09-15T20:32:17.644Z,3.20
2022-09-15T20:34:44.395Z,5.30
2022-09-15T20:37:18.685Z,4.30
2022-09-15T20:39:48.433Z,4.07
2022-09-15T20:42:15.289Z,5.23
2022-09-15T20:44:50.976Z,2.43
2022-09-15T20:47:17.603Z,5.70
2022-09-15T20:49:44.528Z,4.07
2022-09-15T20:52:18.590Z,4.20
2022-09-15T20:54:45.238Z,2.63
2022-09-15T20:57:15.437Z,6.90
2022-09-15T20:59:49.256Z,2.80
2022-09-15T21:02:16.125Z,4.20
2022-09-15T21:04:45.893Z,3.23
2022-09-15T21:07:21.718Z,2.07
2022-09-15T21:09:48.378Z,1.87
2022-09-15T21:12:15.938Z,2.40
2022-09-15T21:14:42.919Z,1.63
2022-09-15T21:17:15.280Z,1.97
2022-09-15T21:19:41.998Z,2.50
2022-09-15T21:22:09.674Z,2.17
2022-09-15T21:24:46.590Z,1.33
2022-09-15T21:27:29.621Z,3.83
2022-09-15T21:29:56.943Z,5.13
2022-09-15T21:32:24.430Z,1.47
2022-09-15T21:34:51.184Z,2.20
2022-09-15T21:37:22.727Z,5.17
2022-09-15T21:39:49.380Z,8.33
2022-09-15T21:42:16.049Z,2.00
2022-09-15T21:44:42.786Z,3.70
2022-09-15T21:47:09.413Z,4.23
2022-09-15T21:49:40.652Z,3.57
2022-09-15T21:52:09.482Z,2.97
2022-09-15T21:54:36.047Z,5.93
2022-09-15T21:57:02.589Z,1.87
2022-09-15T21:59:29.194Z,4.30
2022-09-15T22:01:58.552Z,4.30
2022-09-15T22:04:25.403Z,3.10
2022-09-15T22:06:52.836Z,2.60
2022-09-15T22:09:21.274Z,2.13
2022-09-15T22:11:48.201Z,2.50
2022-09-15T22:14:15.328Z,3.90
2022-09-15T22:16:42.778Z,1.93
2022-09-15T22:19:11.516Z,2.60
2022-09-15T22:21:41.542Z,1.73
2022-09-15T22:24:15.638Z,1.60
2022-09-15T22:26:42.813Z,1.40
2022-09-15T22:29:09.493Z,2.00
2022-09-15T22:31:36.222Z,3.90
2022-09-15T22:34:05.365Z,7.70
2022-09-15T22:36:32.695Z,5.00
2022-09-15T22:39:08.668Z,5.23
2022-09-15T22:41:39.142Z,3.77
2022-09-15T22:44:07.191Z,7.43
2022-09-15T22:46:34.162Z,3.60
2022-09-15T22:49:00.757Z,6.40
2022-09-15T22:51:27.724Z,4.23
2022-09-15T22:53:56.661Z,5.30
2022-09-15T22:56:25.585Z,5.90
2022-09-15T22:58:53.785Z,8.17
2022-09-15T23:01:25.892Z,3.83
2022-09-15T23:03:54.134Z,5.20
2022-09-15T23:06:21.510Z,4.40
2022-09-15T23:08:56.432Z,4.23
2022-09-15T23:11:23.588Z,5.63
2022-09-15T23:13:50.230Z,6.63
2022-09-15T23:16:17.078Z,4.27
2022-09-15T23:18:43.868Z,6.23
2022-09-15T23:21:14.234Z,4.20
2022-09-15T23:23:43.303Z,5.27
2022-09-15T23:26:11.697Z,2.60
2022-09-15T23:28:42.710Z,3.53
2022-09-15T23:31:11.870Z,5.33
2022-09-15T23:33:39.083Z,10.03
2022-09-15T23:36:08.607Z,4.50
2022-09-15T23:38:36.524Z,5.50
2022-09-15T23:41:06.828Z,7.20
2022-09-15T23:43:33.763Z,10.77
2022-09-15T23:46:01.213Z,5.43
2022-09-15T23:48:27.908Z,5.93
2022-09-15T23:50:54.664Z,4.53
2022-09-15T23:53:21.417Z,4.90
2022-09-15T23:55:48.118Z,5.00
2022-09-15T23:58:14.821Z,6.53
